Time;durP1;ratioP1;P1;durP2;ratioP2;P2;SDS_P1;SDS_P2;PMS_P1;PMS_P2;Temp;Humidity;BMP_temperature;BMP_pressure;BME280_temperature;BME280_humidity;BME280_pressure;Samples;Min_cycle;Max_cycle;Signal;HPM_P1;HPM_P2
2023/12/10 00:00:28;;;;;;;27.98;26.08;;;;;;;-0.10;100.00;101475.44;5027879;28;20684;-77
2023/12/10 00:02:57;;;;;;;26.10;24.10;;;;;;;-0.01;100.00;101477.34;5028873;28;20055;-76
2023/12/10 00:05:24;;;;;;;25.63;23.48;;;;;;;0.03;100.00;101475.31;5023016;28;20084;-76
2023/12/10 00:07:51;;;;;;;25.15;23.15;;;;;;;-0.03;100.00;101471.41;5027278;28;20071;-71
2023/12/10 00:10:18;;;;;;;27.92;25.80;;;;;;;-0.11;100.00;101474.63;5026543;28;20558;-70
2023/12/10 00:12:45;;;;;;;28.17;26.17;;;;;;;-0.27;100.00;101476.75;5024987;28;20121;-70
2023/12/10 00:15:12;;;;;;;28.23;26.10;;;;;;;-0.37;100.00;101473.16;5022547;28;20141;-76
2023/12/10 00:17:46;;;;;;;28.60;26.55;;;;;;;-0.24;100.00;101481.75;5030007;28;20045;-76
2023/12/10 00:20:15;;;;;;;26.65;24.67;;;;;;;-0.17;100.00;101474.25;5023862;28;20125;-76
2023/12/10 00:22:46;;;;;;;30.20;28.02;;;;;;;-0.10;100.00;101475.44;5027674;28;20053;-76
2023/12/10 00:25:13;;;;;;;28.10;26.10;;;;;;;-0.04;100.00;101470.56;5026475;28;20481;-71
2023/12/10 00:27:41;;;;;;;26.30;24.40;;;;;;;0.01;100.00;101472.03;5027995;28;20053;-71
2023/12/10 00:30:11;;;;;;;25.65;23.75;;;;;;;-0.19;100.00;101474.38;5028304;28;20056;-76
2023/12/10 00:32:38;;;;;;;28.63;26.42;;;;;;;-0.24;100.00;101472.13;5025284;28;20049;-71
2023/12/10 00:35:06;;;;;;;28.50;26.30;;;;;;;-0.21;100.00;101476.28;5026783;28;20049;-71
2023/12/10 00:37:37;;;;;;;26.00;24.10;;;;;;;-0.11;100.00;101469.41;5027775;28;20160;-77
2023/12/10 00:40:06;;;;;;;24.95;23.15;;;;;;;-0.22;100.00;101471.16;5028455;28;20434;-76
2023/12/10 00:42:33;;;;;;;25.40;23.60;;;;;;;-0.09;100.00;101469.25;5030999;28;20064;-76
2023/12/10 00:45:00;;;;;;;29.27;27.27;;;;;;;-0.09;100.00;101466.66;5029532;28;20071;-76
2023/12/10 00:47:27;;;;;;;31.10;28.92;;;;;;;0.03;100.00;101455.28;5031629;28;20080;-70
2023/12/10 00:49:54;;;;;;;27.70;25.80;;;;;;;-0.13;100.00;101444.34;5027910;28;20050;-71
2023/12/10 00:52:21;;;;;;;26.23;24.45;;;;;;;-0.05;100.00;101444.59;5027632;28;20060;-70
2023/12/10 00:54:50;;;;;;;25.27;23.48;;;;;;;-0.08;100.00;101432.59;5031326;28;20041;-71
2023/12/10 00:57:17;;;;;;;28.73;26.63;;;;;;;-0.07;100.00;101422.97;5028748;28;20136;-71
2023/12/10 00:59:44;;;;;;;26.58;24.73;;;;;;;-0.20;100.00;101407.44;5029098;28;20045;-76
2023/12/10 01:02:11;;;;;;;24.25;22.50;;;;;;;-0.29;100.00;101408.16;5029008;28;20055;-76
2023/12/10 01:04:38;;;;;;;28.13;25.90;;;;;;;-0.26;100.00;101397.47;5030941;28;20128;-76
2023/12/10 01:07:08;;;;;;;26.90;25.08;;;;;;;-0.24;100.00;101401.63;5030898;28;20049;-72
2023/12/10 01:09:40;;;;;;;26.65;24.65;;;;;;;-0.25;100.00;101394.72;5028926;28;20548;-75
2023/12/10 01:12:09;;;;;;;24.90;23.17;;;;;;;-0.35;100.00;101406.00;5030217;28;20129;-71
2023/12/10 01:14:37;;;;;;;25.15;23.35;;;;;;;-0.38;100.00;101401.84;5030294;28;20132;-70
2023/12/10 01:17:05;;;;;;;26.30;24.50;;;;;;;-0.31;100.00;101395.19;5026591;28;20049;-71
2023/12/10 01:19:32;;;;;;;28.10;26.05;;;;;;;-0.32;100.00;101393.56;5029717;28;20056;-70
2023/12/10 01:21:58;;;;;;;28.45;26.35;;;;;;;-0.45;100.00;101387.63;5024682;28;20044;-71
2023/12/10 01:24:27;;;;;;;27.65;25.55;;;;;;;-0.38;100.00;101398.41;5028982;28;20045;-76
2023/12/10 01:26:54;;;;;;;27.05;25.08;;;;;;;-0.30;100.00;101391.66;5030648;28;20041;-76
2023/12/10 01:29:22;;;;;;;26.10;24.20;;;;;;;-0.34;100.00;101390.22;5025467;28;20081;-71
2023/12/10 01:31:49;;;;;;;26.73;24.83;;;;;;;-0.28;100.00;101376.69;5028474;28;20115;-71
2023/12/10 01:34:16;;;;;;;25.15;23.35;;;;;;;-0.26;100.00;101372.19;5030167;28;20133;-77
2023/12/10 01:36:44;;;;;;;25.98;24.17;;;;;;;-0.36;100.00;101373.88;5027853;28;20081;-71
2023/12/10 01:39:14;;;;;;;27.75;25.85;;;;;;;-0.41;100.00;101380.38;5031033;28;20518;-70
2023/12/10 01:41:41;;;;;;;24.55;22.77;;;;;;;-0.46;100.00;101386.78;5028886;28;20057;-76
2023/12/10 01:44:09;;;;;;;26.15;23.92;;;;;;;-0.35;100.00;101377.31;5031384;28;20053;-76
2023/12/10 01:46:38;;;;;;;24.15;22.20;;;;;;;-0.34;100.00;101379.78;5026919;28;20056;-76
2023/12/10 01:49:07;;;;;;;28.15;25.08;;;;;;;-0.42;100.00;101374.34;5029117;28;20141;-71
2023/12/10 01:51:35;;;;;;;32.17;29.67;;;;;;;-0.16;100.00;101379.31;5022824;28;20051;-77
2023/12/10 01:54:02;;;;;;;27.67;25.65;;;;;;;-0.27;100.00;101378.38;5030344;28;20133;-71
2023/12/10 01:56:32;;;;;;;26.23;24.33;;;;;;;-0.09;100.00;101370.03;5026996;28;20174;-76
2023/12/10 01:58:59;;;;;;;25.38;23.40;;;;;;;-0.22;100.00;101375.38;5028477;28;20495;-70
2023/12/10 02:01:27;;;;;;;24.30;22.40;;;;;;;-0.42;100.00;101363.91;5024335;28;20045;-77
2023/12/10 02:03:58;;;;;;;25.52;23.65;;;;;;;-0.37;100.00;101369.56;5026680;28;20045;-76
2023/12/10 02:06:26;;;;;;;26.67;24.77;;;;;;;-0.36;100.00;101370.44;5023373;28;20050;-72
2023/12/10 02:08:53;;;;;;;25.73;23.83;;;;;;;-0.39;100.00;101353.22;5029501;28;20073;-70
2023/12/10 02:11:20;;;;;;;23.42;21.73;;;;;;;-0.41;100.00;101354.28;5028951;28;20556;-71
2023/12/10 02:13:48;;;;;;;24.33;22.63;;;;;;;-0.46;100.00;101360.66;5027326;28;20120;-76
2023/12/10 02:16:15;;;;;;;25.02;23.23;;;;;;;-0.39;100.00;101357.59;5022013;28;20471;-70
2023/12/10 02:18:42;;;;;;;28.35;26.35;;;;;;;-0.38;100.00;101357.47;5029594;28;20046;-71
2023/12/10 02:21:11;;;;;;;26.45;24.55;;;;;;;-0.50;100.00;101353.22;5028782;28;20396;-70
2023/12/10 02:23:47;;;;;;;27.17;25.20;;;;;;;-0.44;100.00;101338.88;5025439;28;20057;-70
2023/12/10 02:26:16;;;;;;;27.63;25.63;;;;;;;-0.44;100.00;101344.09;5027653;28;20041;-70
2023/12/10 02:28:53;;;;;;;28.60;25.90;;;;;;;-0.49;100.00;101344.41;5028124;28;20079;-77
2023/12/10 02:31:20;;;;;;;29.90;27.60;;;;;;;-0.43;100.00;101335.28;5029003;28;20046;-71
2023/12/10 02:33:48;;;;;;;28.15;25.95;;;;;;;-0.53;100.00;101336.00;5029389;28;20873;-71
2023/12/10 02:36:15;;;;;;;31.67;29.48;;;;;;;-0.44;100.00;101329.25;5029257;28;20670;-71
2023/12/10 02:38:45;;;;;;;30.83;28.52;;;;;;;-0.58;100.00;101332.91;5026851;28;20077;-71
2023/12/10 02:41:12;;;;;;;29.65;27.48;;;;;;;-0.62;100.00;101326.28;5028823;28;20125;-70
2023/12/10 02:43:48;;;;;;;26.10;24.20;;;;;;;-0.65;100.00;101326.50;5028789;28;20099;-76
2023/12/10 02:46:15;;;;;;;27.40;25.40;;;;;;;-0.68;100.00;101321.53;5027271;28;20049;-71
2023/12/10 02:48:43;;;;;;;26.80;24.90;;;;;;;-0.64;100.00;101329.94;5028096;28;20057;-76
2023/12/10 02:51:11;;;;;;;27.55;25.50;;;;;;;-0.62;100.00;101336.72;5027079;28;20053;-71
2023/12/10 02:53:39;;;;;;;25.73;23.92;;;;;;;-0.67;100.00;101336.22;5028292;28;20132;-71
2023/12/10 02:56:13;;;;;;;26.92;25.02;;;;;;;-0.63;100.00;101335.06;5027156;28;20526;-76
2023/12/10 02:58:40;;;;;;;28.23;26.23;;;;;;;-0.66;100.00;101337.91;5024276;28;20046;-76
2023/12/10 03:01:14;;;;;;;26.60;24.70;;;;;;;-0.57;100.00;101331.97;5028051;28;20542;-77
2023/12/10 03:03:41;;;;;;;26.00;24.10;;;;;;;-0.65;100.00;101333.50;5027767;28;20080;-70
2023/12/10 03:06:10;;;;;;;28.08;25.85;;;;;;;-0.70;100.00;101332.09;5027388;28;20107;-70
2023/12/10 03:08:37;;;;;;;27.13;25.13;;;;;;;-0.74;100.00;101335.06;5025057;28;20057;-70
2023/12/10 03:11:05;;;;;;;29.80;27.30;;;;;;;-0.73;100.00;101334.09;5026434;28;20049;-70
2023/12/10 03:13:32;;;;;;;28.05;25.95;;;;;;;-0.74;100.00;101330.66;5027631;28;20103;-71
2023/12/10 03:15:59;;;;;;;28.33;26.23;;;;;;;-0.69;100.00;101332.94;5023450;28;20426;-71
2023/12/10 03:18:29;;;;;;;33.25;30.83;;;;;;;-0.61;100.00;101333.16;5028076;28;20053;-71
2023/12/10 03:20:57;;;;;;;27.65;25.75;;;;;;;-0.63;100.00;101347.28;5027860;28;20618;-70
2023/12/10 03:23:24;;;;;;;28.10;26.10;;;;;;;-0.60;100.00;101347.06;5028516;28;20052;-70
2023/12/10 03:25:51;;;;;;;28.27;26.38;;;;;;;-0.65;100.00;101338.75;5026176;28;20585;-70
2023/12/10 03:28:18;;;;;;;28.83;26.08;;;;;;;-0.67;100.00;101336.22;5027762;28;20053;-71
2023/12/10 03:30:45;;;;;;;26.95;25.05;;;;;;;-0.62;100.00;101334.09;5026458;28;20076;-71
2023/12/10 03:33:12;;;;;;;24.05;22.45;;;;;;;-0.73;100.00;101332.34;5025763;28;20149;-70
2023/12/10 03:35:40;;;;;;;29.90;27.58;;;;;;;-0.62;100.00;101330.69;5025960;28;20084;-71
2023/12/10 03:38:07;;;;;;;27.85;25.95;;;;;;;-0.70;100.00;101318.19;5025473;28;20124;-71
2023/12/10 03:40:34;;;;;;;25.60;23.80;;;;;;;-0.74;100.00;101328.06;5027716;28;20056;-70
2023/12/10 03:43:01;;;;;;;27.25;25.25;;;;;;;-0.62;100.00;101325.44;5027349;28;20079;-71
2023/12/10 03:45:28;;;;;;;30.25;28.00;;;;;;;-0.62;100.00;101320.25;5028196;28;20049;-71
2023/12/10 03:47:55;;;;;;;29.98;27.88;;;;;;;-0.64;100.00;101329.94;5027816;28;20068;-77
2023/12/10 03:50:22;;;;;;;27.63;25.77;;;;;;;-0.58;100.00;101325.09;5027944;28;20045;-76
2023/12/10 03:52:50;;;;;;;29.27;27.05;;;;;;;-0.63;100.00;101321.19;5025691;28;20474;-77
2023/12/10 03:55:18;;;;;;;28.35;26.23;;;;;;;-0.59;100.00;101312.16;5025765;28;20419;-77
2023/12/10 03:57:46;;;;;;;24.42;22.63;;;;;;;-0.61;100.00;101321.88;5025991;28;20049;-76
2023/12/10 04:00:13;;;;;;;28.83;26.73;;;;;;;-0.61;100.00;101319.28;5028276;28;20045;-76
2023/12/10 04:02:40;;;;;;;29.85;27.63;;;;;;;-0.60;100.00;101326.19;5024512;28;20167;-77
2023/12/10 04:05:11;;;;;;;29.38;27.27;;;;;;;-0.68;100.00;101329.34;5027404;28;20046;-77
2023/12/10 04:07:38;;;;;;;32.03;29.83;;;;;;;-0.65;100.00;101336.13;5028648;28;20080;-76
2023/12/10 04:10:08;;;;;;;30.40;28.20;;;;;;;-0.52;100.00;101334.22;5027666;28;20057;-76
2023/12/10 04:12:35;;;;;;;33.45;31.05;;;;;;;-0.62;100.00;101331.50;5026513;28;20497;-76
2023/12/10 04:15:02;;;;;;;29.27;27.23;;;;;;;-0.61;100.00;101327.94;5028442;28;20045;-77
2023/12/10 04:17:30;;;;;;;31.40;29.20;;;;;;;-0.59;100.00;101331.25;5022615;28;20053;-76
2023/12/10 04:19:57;;;;;;;31.90;29.40;;;;;;;-0.60;100.00;101334.84;5030110;28;20416;-77
2023/12/10 04:22:24;;;;;;;29.35;27.05;;;;;;;-0.61;100.00;101325.31;5024799;28;20134;-76
2023/12/10 04:24:51;;;;;;;26.80;24.75;;;;;;;-0.66;100.00;101324.88;5032774;28;20049;-76
2023/12/10 04:27:19;;;;;;;25.63;23.73;;;;;;;-0.65;100.00;101323.91;5030477;28;20618;-76
2023/12/10 04:29:46;;;;;;;27.02;24.92;;;;;;;-0.61;100.00;101317.50;5028416;28;20548;-77
2023/12/10 04:32:13;;;;;;;29.58;27.48;;;;;;;-0.58;100.00;101319.03;5032406;28;20045;-76
2023/12/10 04:34:40;;;;;;;28.23;25.80;;;;;;;-0.60;100.00;101313.97;5033003;28;20519;-76
2023/12/10 04:37:07;;;;;;;28.45;26.35;;;;;;;-0.62;100.00;101309.81;5031794;28;20098;-76
2023/12/10 04:39:34;;;;;;;30.83;28.63;;;;;;;-0.58;100.00;101309.44;5029891;28;20052;-76
2023/12/10 04:42:01;;;;;;;32.17;29.98;;;;;;;-0.63;100.00;101306.38;5031133;28;20049;-77
2023/12/10 04:44:29;;;;;;;31.80;29.63;;;;;;;-0.64;100.00;101307.28;5030147;28;20415;-76
2023/12/10 04:46:57;;;;;;;30.05;27.85;;;;;;;-0.58;100.00;101306.81;5031888;28;20425;-76
2023/12/10 04:49:23;;;;;;;27.52;25.42;;;;;;;-0.60;100.00;101300.91;5029782;28;20103;-76
2023/12/10 04:51:51;;;;;;;27.23;25.23;;;;;;;-0.57;100.00;101303.28;5031486;28;20053;-71
2023/12/10 04:54:18;;;;;;;29.20;27.10;;;;;;;-0.54;100.00;101310.03;5030331;28;20042;-72
2023/12/10 04:56:46;;;;;;;27.15;24.70;;;;;;;-0.61;100.00;101309.66;5030163;28;20051;-71
2023/12/10 04:59:13;;;;;;;28.77;26.58;;;;;;;-0.60;100.00;101305.31;5030246;28;20060;-70
2023/12/10 05:01:41;;;;;;;27.85;25.73;;;;;;;-0.54;100.00;101313.47;5025931;28;20427;-71
2023/12/10 05:04:09;;;;;;;30.98;28.67;;;;;;;-0.59;100.00;101313.00;5025870;28;20092;-70
2023/12/10 05:06:36;;;;;;;32.45;29.50;;;;;;;-0.61;100.00;101307.06;5028405;28;20096;-71
2023/12/10 05:09:03;;;;;;;27.60;25.70;;;;;;;-0.58;100.00;101306.00;5028210;28;20439;-71
2023/12/10 05:11:30;;;;;;;27.35;25.45;;;;;;;-0.61;100.00;101309.66;5029018;28;20525;-71
2023/12/10 05:13:58;;;;;;;25.30;23.50;;;;;;;-0.64;100.00;101307.28;5030935;28;20533;-70
2023/12/10 05:16:25;;;;;;;27.10;24.98;;;;;;;-0.62;100.00;101317.63;5024730;28;20125;-70
2023/12/10 05:18:53;;;;;;;25.95;24.05;;;;;;;-0.54;100.00;101316.09;5029300;28;20124;-70
2023/12/10 05:21:20;;;;;;;25.92;24.08;;;;;;;-0.56;100.00;101312.75;5029034;28;20080;-72
2023/12/10 05:23:47;;;;;;;25.42;23.23;;;;;;;-0.56;100.00;101320.59;5029698;28;20826;-71
2023/12/10 05:26:14;;;;;;;26.98;24.95;;;;;;;-0.53;100.00;101309.09;5028686;28;20053;-71
2023/12/10 05:28:41;;;;;;;27.35;25.17;;;;;;;-0.48;100.00;101323.44;5028937;28;20057;-71
2023/12/10 05:31:09;;;;;;;26.65;24.60;;;;;;;-0.47;100.00;101317.25;5028395;28;20053;-70
2023/12/10 05:33:35;;;;;;;25.80;24.10;;;;;;;-0.40;100.00;101315.00;5023893;28;20046;-70
2023/12/10 05:36:04;;;;;;;27.17;25.27;;;;;;;-0.40;100.00;101319.38;5027386;28;20077;-71
2023/12/10 05:38:31;;;;;;;26.50;24.50;;;;;;;-0.40;100.00;101315.00;5029250;28;20553;-71
2023/12/10 05:40:58;;;;;;;23.88;22.27;;;;;;;-0.36;100.00;101326.06;5029495;28;20133;-71
2023/12/10 05:43:25;;;;;;;29.33;27.42;;;;;;;-0.35;100.00;101319.88;5028740;28;20132;-71
2023/12/10 05:45:53;;;;;;;31.95;29.85;;;;;;;-0.44;100.00;101334.47;5028538;28;20125;-70
2023/12/10 05:48:21;;;;;;;27.02;25.23;;;;;;;-0.26;100.00;101326.97;5025992;28;20049;-71
2023/12/10 05:50:48;;;;;;;30.20;27.95;;;;;;;-0.20;100.00;101334.34;5028238;28;20053;-71
2023/12/10 05:53:16;;;;;;;27.13;25.42;;;;;;;-0.26;100.00;101326.97;5028886;28;20045;-71
2023/12/10 05:55:51;;;;;;;24.92;23.33;;;;;;;-0.26;100.00;101325.19;5029062;28;20064;-76
2023/12/10 05:58:18;;;;;;;22.75;21.20;;;;;;;-0.39;100.00;101318.44;5026923;28;20045;-77
2023/12/10 06:00:45;;;;;;;26.27;24.48;;;;;;;-0.44;100.00;101323.19;5030049;28;20525;-77
2023/12/10 06:03:12;;;;;;;24.27;22.48;;;;;;;-0.33;100.00;101317.97;5029262;28;20045;-76
2023/12/10 06:05:39;;;;;;;23.75;22.15;;;;;;;-0.34;100.00;101314.50;5027508;28;20041;-77
2023/12/10 06:08:06;;;;;;;23.33;21.77;;;;;;;-0.35;100.00;101320.69;5029073;28;20044;-77
2023/12/10 06:10:34;;;;;;;21.85;20.45;;;;;;;-0.21;100.00;101310.94;5029501;28;20708;-76
2023/12/10 06:13:01;;;;;;;26.05;24.35;;;;;;;-0.34;100.00;101311.91;5022836;28;20049;-76
2023/12/10 06:15:28;;;;;;;26.45;24.65;;;;;;;-0.37;100.00;101309.53;5025108;28;20107;-76
2023/12/10 06:17:57;;;;;;;25.25;23.50;;;;;;;-0.39;100.00;101316.69;5025618;28;20056;-76
2023/12/10 06:20:28;;;;;;;25.88;24.20;;;;;;;-0.36;100.00;101302.56;5028491;28;20081;-76
2023/12/10 06:22:55;;;;;;;25.45;23.85;;;;;;;-0.28;100.00;101307.97;5029168;28;20045;-77
2023/12/10 06:25:22;;;;;;;27.90;25.90;;;;;;;-0.33;100.00;101299.72;5026828;28;20041;-77
2023/12/10 06:27:50;;;;;;;24.70;23.10;;;;;;;-0.29;100.00;101301.13;5028986;28;20049;-76
2023/12/10 06:30:17;;;;;;;29.35;27.40;;;;;;;-0.32;100.00;101303.97;5029509;28;20046;-77
2023/12/10 06:32:51;;;;;;;28.70;26.70;;;;;;;-0.26;100.00;101296.47;5029079;28;20509;-77
2023/12/10 06:35:18;;;;;;;28.05;26.35;;;;;;;-0.32;100.00;101291.75;5028683;28;20804;-76
2023/12/10 06:37:52;;;;;;;25.75;24.05;;;;;;;-0.28;100.00;101289.72;5029253;28;20049;-76
2023/12/10 06:40:19;;;;;;;25.08;23.50;;;;;;;-0.37;100.00;101282.59;5025956;28;20436;-77
2023/12/10 06:42:46;;;;;;;27.45;25.55;;;;;;;-0.27;100.00;101279.16;5026341;28;20059;-76
2023/12/10 06:45:15;;;;;;;29.67;27.88;;;;;;;-0.16;100.00;101280.91;5028662;28;20069;-77
2023/12/10 06:47:42;;;;;;;31.23;29.23;;;;;;;-0.34;100.00;101285.81;5029402;28;20055;-76
2023/12/10 06:50:10;;;;;;;28.90;27.00;;;;;;;-0.26;100.00;101288.66;5029805;28;20099;-71
2023/12/10 06:52:38;;;;;;;28.95;27.02;;;;;;;-0.22;100.00;101293.63;5026999;28;20406;-77
2023/12/10 06:55:06;;;;;;;33.45;31.25;;;;;;;-0.20;100.00;101289.13;5026101;28;20132;-70
2023/12/10 06:57:33;;;;;;;30.70;28.80;;;;;;;-0.22;100.00;101281.38;5024944;28;20082;-71
2023/12/10 07:00:00;;;;;;;31.70;29.52;;;;;;;-0.13;100.00;101285.06;5027395;28;20235;-71
2023/12/10 07:02:30;;;;;;;33.08;30.05;;;;;;;-0.18;100.00;101289.81;5026218;28;20132;-70
2023/12/10 07:04:57;;;;;;;27.30;25.60;;;;;;;-0.21;100.00;101295.28;5027114;28;20052;-70
2023/12/10 07:07:24;;;;;;;26.15;24.45;;;;;;;-0.17;100.00;101291.47;5027958;28;20145;-77
2023/12/10 07:09:51;;;;;;;27.48;25.65;;;;;;;-0.18;100.00;101290.66;5024142;28;20053;-76
2023/12/10 07:12:20;;;;;;;28.88;27.02;;;;;;;-0.19;100.00;101294.19;5026607;28;20511;-76
2023/12/10 07:14:47;;;;;;;29.63;27.73;;;;;;;-0.16;100.00;101298.34;5023349;28;20132;-70
2023/12/10 07:17:15;;;;;;;30.77;28.80;;;;;;;-0.01;100.00;101299.75;5001111;28;20164;-70
2023/12/10 07:19:43;;;;;;;29.73;27.83;;;;;;;0.01;100.00;101303.06;5007190;28;20058;-71
2023/12/10 07:22:10;;;;;;;33.17;31.08;;;;;;;-0.05;100.00;101316.63;5004193;28;20052;-70
2023/12/10 07:24:38;;;;;;;28.52;26.73;;;;;;;-0.09;100.00;101321.25;5006900;28;20034;-71
2023/12/10 07:27:05;;;;;;;29.65;27.75;;;;;;;-0.13;100.00;101325.06;5007179;28;20551;-71
2023/12/10 07:29:32;;;;;;;28.38;26.40;;;;;;;0.02;100.00;101324.78;5008565;28;21170;-70
2023/12/10 07:31:59;;;;;;;28.15;26.33;;;;;;;-0.06;100.00;101323.63;5006039;28;20133;-70
2023/12/10 07:34:26;;;;;;;28.08;26.27;;;;;;;-0.12;100.00;101329.34;5006466;28;20078;-76
2023/12/10 07:36:55;;;;;;;29.83;27.90;;;;;;;-0.11;100.00;101333.59;5008981;28;20060;-71
2023/12/10 07:39:22;;;;;;;31.73;29.67;;;;;;;-0.16;100.00;101337.53;5007238;28;20108;-71
2023/12/10 07:41:49;;;;;;;30.10;28.20;;;;;;;-0.10;100.00;101337.03;5007743;28;20058;-70
2023/12/10 07:44:16;;;;;;;30.13;27.92;;;;;;;-0.08;100.00;101348.19;5007325;28;20563;-70
2023/12/10 07:46:43;;;;;;;28.20;26.40;;;;;;;-0.15;100.00;101353.09;5008611;28;20100;-71
2023/12/10 07:49:11;;;;;;;28.83;27.02;;;;;;;-0.05;100.00;101351.41;5007628;28;20052;-71
2023/12/10 07:51:38;;;;;;;28.38;26.55;;;;;;;-0.05;100.00;101356.63;5006811;28;20134;-71
2023/12/10 07:54:06;;;;;;;26.40;24.70;;;;;;;0.05;100.00;101361.94;5005840;28;20081;-71
2023/12/10 07:56:33;;;;;;;24.55;23.05;;;;;;;0.18;100.00;101365.25;5000480;28;20058;-70
2023/12/10 07:59:01;;;;;;;24.45;22.95;;;;;;;0.13;100.00;101356.13;5005797;28;20052;-71
2023/12/10 08:01:28;;;;;;;25.05;22.77;;;;;;;0.09;100.00;101358.16;5002964;28;20061;-70
2023/12/10 08:03:55;;;;;;;24.10;22.58;;;;;;;0.18;100.00;101362.66;5002163;28;20046;-71
2023/12/10 08:06:22;;;;;;;24.80;23.15;;;;;;;0.35;100.00;101361.28;5006765;28;20109;-70
2023/12/10 08:08:49;;;;;;;25.20;23.40;;;;;;;0.18;100.00;101362.66;5004952;28;20125;-71
2023/12/10 08:11:17;;;;;;;25.60;23.80;;;;;;;0.12;100.00;101354.44;5004757;28;20129;-70
2023/12/10 08:13:44;;;;;;;24.55;22.85;;;;;;;0.08;100.00;101359.09;5004318;28;20622;-71
2023/12/10 08:16:12;;;;;;;25.70;23.30;;;;;;;0.09;100.00;101362.53;5004780;28;20054;-71
2023/12/10 08:18:39;;;;;;;26.55;24.65;;;;;;;0.36;100.00;101370.75;5000977;28;20125;-71
2023/12/10 08:21:06;;;;;;;25.95;24.15;;;;;;;0.20;100.00;101365.13;4998884;28;20126;-77
2023/12/10 08:23:33;;;;;;;24.88;23.17;;;;;;;0.10;100.00;101377.25;5006748;28;20569;-77
2023/12/10 08:26:01;;;;;;;26.42;24.50;;;;;;;-0.09;100.00;101364.81;5007874;28;20060;-76
2023/12/10 08:28:30;;;;;;;24.70;23.00;;;;;;;0.11;100.00;101365.84;5002022;28;20495;-77
2023/12/10 08:30:57;;;;;;;26.58;24.67;;;;;;;0.29;100.00;101364.38;5006526;28;20046;-76
2023/12/10 08:33:24;;;;;;;25.73;23.92;;;;;;;0.17;100.00;101363.56;4998644;28;20054;-71
2023/12/10 08:35:53;;;;;;;26.63;24.83;;;;;;;0.52;100.00;101372.16;5001014;28;20920;-71
2023/12/10 08:38:20;;;;;;;25.27;23.58;;;;;;;0.42;100.00;101365.06;5003648;28;20064;-71
2023/12/10 08:40:47;;;;;;;25.80;24.10;;;;;;;0.27;100.00;101368.06;5005960;28;20162;-70
2023/12/10 08:43:14;;;;;;;25.23;23.63;;;;;;;0.35;100.00;101360.44;5006559;28;20128;-71
2023/12/10 08:45:43;;;;;;;26.15;24.35;;;;;;;0.44;100.00;101351.84;5004236;28;20101;-71
2023/12/10 08:48:10;;;;;;;26.50;24.70;;;;;;;0.46;100.00;101349.97;5002732;28;20131;-71
2023/12/10 08:50:37;;;;;;;28.65;26.65;;;;;;;0.44;100.00;101341.41;5004694;28;20046;-71
2023/12/10 08:53:04;;;;;;;24.77;22.98;;;;;;;0.22;100.00;101337.91;4999451;28;20139;-70
2023/12/10 08:55:31;;;;;;;24.80;23.20;;;;;;;0.38;100.00;101344.53;5005275;28;20048;-71
2023/12/10 08:57:58;;;;;;;23.20;21.70;;;;;;;0.13;100.00;101333.44;5005739;28;20045;-70
2023/12/10 09:00:26;;;;;;;26.05;23.90;;;;;;;0.22;100.00;101340.53;5005238;28;20046;-71
2023/12/10 09:02:54;;;;;;;24.20;22.60;;;;;;;0.26;100.00;101346.34;5008371;28;20128;-70
2023/12/10 09:05:21;;;;;;;24.45;22.80;;;;;;;0.22;100.00;101342.31;5007716;28;20076;-70
2023/12/10 09:07:48;;;;;;;25.00;23.30;;;;;;;0.20;100.00;101347.66;5008799;28;20614;-71
2023/12/10 09:10:15;;;;;;;25.25;23.50;;;;;;;0.19;100.00;101342.56;5010084;28;20141;-71
2023/12/10 09:12:43;;;;;;;25.60;23.80;;;;;;;0.24;100.00;101335.16;5009427;28;20072;-71
2023/12/10 09:15:10;;;;;;;26.15;24.35;;;;;;;0.29;100.00;101345.25;5007207;28;20119;-71
2023/12/10 09:17:37;;;;;;;24.95;23.25;;;;;;;0.22;100.00;101339.72;5004487;28;21047;-71
2023/12/10 09:20:08;;;;;;;24.90;23.25;;;;;;;0.30;100.00;101331.22;5009017;28;20085;-76
2023/12/10 09:22:35;;;;;;;26.33;24.42;;;;;;;0.40;100.00;101319.91;5006532;28;20516;-76
2023/12/10 09:25:09;;;;;;;26.30;24.50;;;;;;;0.33;100.00;101321.34;5007235;28;20050;-75
2023/12/10 09:27:37;;;;;;;27.38;25.38;;;;;;;0.39;100.00;101320.03;5005937;28;20049;-70
2023/12/10 09:30:04;;;;;;;26.10;24.40;;;;;;;0.33;100.00;101308.28;5009787;28;20053;-71
2023/12/10 09:32:32;;;;;;;29.80;27.60;;;;;;;0.30;100.00;101305.94;5006191;28;20069;-70
2023/12/10 09:35:00;;;;;;;26.27;24.48;;;;;;;0.45;100.00;101304.69;5005477;28;20128;-71
2023/12/10 09:37:29;;;;;;;27.02;25.23;;;;;;;0.45;100.00;101306.47;5009474;28;20089;-71
2023/12/10 09:39:56;;;;;;;25.88;24.17;;;;;;;0.61;100.00;101311.28;5006883;28;20137;-71
2023/12/10 09:42:23;;;;;;;27.17;24.95;;;;;;;0.54;100.00;101303.09;5003187;28;20056;-71
2023/12/10 09:44:50;;;;;;;26.60;24.70;;;;;;;0.50;100.00;101299.09;5007457;28;20085;-70
2023/12/10 09:47:18;;;;;;;25.48;23.77;;;;;;;0.52;100.00;101301.59;5001997;28;20477;-71
2023/12/10 09:49:45;;;;;;;25.65;23.85;;;;;;;0.50;100.00;101301.69;5006772;28;20129;-71
2023/12/10 09:52:13;;;;;;;27.73;25.83;;;;;;;0.45;100.00;101285.56;5005165;28;20821;-70
2023/12/10 09:54:44;;;;;;;27.50;25.63;;;;;;;0.47;100.00;101283.66;5007323;28;20133;-71
2023/12/10 09:57:13;;;;;;;25.70;23.95;;;;;;;0.28;100.00;101281.72;5004248;28;20045;-70
2023/12/10 09:59:42;;;;;;;28.98;27.00;;;;;;;0.54;100.00;101279.56;5007639;28;20137;-71
2023/12/10 10:02:10;;;;;;;25.77;24.08;;;;;;;0.53;100.00;101282.31;5004811;28;20520;-71
2023/12/10 10:04:40;;;;;;;25.15;23.45;;;;;;;0.22;100.00;101275.22;4987307;28;20104;-70
2023/12/10 10:07:07;;;;;;;28.45;26.50;;;;;;;0.42;100.00;101281.44;5010792;28;20471;-71
2023/12/10 10:09:34;;;;;;;27.83;25.83;;;;;;;2.83;100.00;101280.56;5009286;28;20100;-71
2023/12/10 10:12:03;;;;;;;24.48;22.77;;;;;;;0.61;100.00;101277.28;5007568;28;20062;-71
2023/12/10 10:14:31;;;;;;;22.55;21.05;;;;;;;0.37;100.00;101264.47;5000991;28;20057;-71
2023/12/10 10:16:59;;;;;;;27.50;24.77;;;;;;;0.34;100.00;101278.63;5007713;28;20149;-71
2023/12/10 10:19:27;;;;;;;25.25;23.55;;;;;;;0.27;100.00;101280.03;5004446;28;20050;-70
2023/12/10 10:21:55;;;;;;;26.88;25.08;;;;;;;0.41;100.00;101281.53;5008935;28;20053;-76
2023/12/10 10:24:22;;;;;;;27.33;25.52;;;;;;;0.28;100.00;101273.06;5007072;28;20129;-71
2023/12/10 10:26:50;;;;;;;26.92;25.02;;;;;;;0.42;100.00;101281.44;5006587;28;20052;-76
2023/12/10 10:29:21;;;;;;;26.40;24.80;;;;;;;0.45;100.00;101282.94;5005189;28;20136;-76
2023/12/10 10:31:49;;;;;;;27.80;25.80;;;;;;;0.59;100.00;101266.94;5007980;28;20065;-77
2023/12/10 10:34:17;;;;;;;25.92;24.27;;;;;;;0.62;100.00;101276.34;5006994;28;20050;-77
2023/12/10 10:36:44;;;;;;;23.85;22.35;;;;;;;0.46;100.00;101268.94;5007761;28;20052;-76
2023/12/10 10:39:12;;;;;;;26.23;24.52;;;;;;;0.61;100.00;101274.69;5008402;28;20056;-77
2023/12/10 10:41:39;;;;;;;23.30;21.90;;;;;;;0.66;100.00;101290.78;5009329;28;20049;-76
2023/12/10 10:44:09;;;;;;;24.45;22.95;;;;;;;0.84;100.00;101280.59;5010974;28;20053;-77
2023/12/10 10:46:38;;;;;;;24.60;23.10;;;;;;;0.97;100.00;101276.00;5008973;28;20046;-76
2023/12/10 10:49:05;;;;;;;23.05;21.55;;;;;;;0.76;100.00;101272.59;5008857;28;20048;-76
2023/12/10 10:51:33;;;;;;;22.92;21.48;;;;;;;1.07;100.00;101268.19;5009360;28;20052;-76
2023/12/10 10:54:04;;;;;;;31.42;29.33;;;;;;;1.03;100.00;101262.41;5010217;28;20053;-77
2023/12/10 10:56:32;;;;;;;24.08;22.58;;;;;;;0.77;100.00;101254.13;5007518;28;20128;-76
2023/12/10 10:59:23;;;;;;;24.70;23.20;;;;;;;0.74;100.00;101249.16;5007006;28;20129;-77
2023/12/10 11:01:52;;;;;;;23.92;22.33;;;;;;;0.93;100.00;101253.66;5008394;28;20048;-76
2023/12/10 11:04:22;;;;;;;24.30;22.60;;;;;;;0.95;100.00;101253.53;5004263;28;20133;-77
2023/12/10 11:06:50;;;;;;;24.02;22.20;;;;;;;0.61;100.00;101248.53;5003363;28;20042;-76